Time;durP1;ratioP1;P1;durP2;ratioP2;P2;SDS_P1;SDS_P2;PMS_P1;PMS_P2;Temp;Humidity;BMP_temperature;BMP_pressure;BME280_temperature;BME280_humidity;BME280_pressure;Samples;Min_cycle;Max_cycle;Signal;HPM_P1;HPM_P2
2022/05/16 00:01:37;;;;;;;9.67;2.63;;;12.50;99.90;;;;;;5181406;28;20535;-46
2022/05/16 00:04:08;;;;;;;5.60;2.80;;;12.50;99.90;;;;;;5198872;28;20188;-49
2022/05/16 00:06:38;;;;;;;5.90;2.57;;;12.50;99.90;;;;;;5203475;28;20476;-47
2022/05/16 00:09:09;;;;;;;6.17;2.30;;;12.50;99.90;;;;;;5196859;28;20626;-49
2022/05/16 00:11:40;;;;;;;4.97;2.70;;;12.40;99.90;;;;;;5197893;28;20539;-48
2022/05/16 00:14:11;;;;;;;10.43;2.90;;;12.40;99.90;;;;;;5185110;28;20523;-47
2022/05/16 00:16:41;;;;;;;6.80;2.33;;;12.30;99.90;;;;;;5195756;28;20238;-46
2022/05/16 00:19:12;;;;;;;5.77;2.60;;;12.30;99.90;;;;;;5188913;28;20487;-47
2022/05/16 00:21:43;;;;;;;17.03;2.80;;;12.30;99.90;;;;;;5198657;28;20207;-48
2022/05/16 00:24:13;;;;;;;9.03;2.67;;;12.30;99.90;;;;;;5188265;28;20169;-47
2022/05/16 00:26:44;;;;;;;8.07;2.70;;;12.30;99.90;;;;;;5200131;28;20241;-46
2022/05/16 00:29:14;;;;;;;6.90;3.00;;;12.30;99.90;;;;;;5188105;28;20216;-48
2022/05/16 00:31:45;;;;;;;5.70;2.67;;;12.20;99.90;;;;;;5180652;28;20187;-47
2022/05/16 00:34:16;;;;;;;13.83;3.23;;;12.20;99.90;;;;;;5178502;28;20271;-48
2022/05/16 00:36:47;;;;;;;8.87;2.80;;;12.20;99.90;;;;;;5199271;28;20222;-46
2022/05/16 00:39:20;;;;;;;8.83;2.90;;;12.10;99.90;;;;;;5197923;28;20448;-49
2022/05/16 00:41:51;;;;;;;8.93;2.30;;;12.10;99.90;;;;;;5196975;28;20184;-46
2022/05/16 00:44:23;;;;;;;2.10;1.80;;;12.10;99.90;;;;;;5181909;28;20422;-47
2022/05/16 00:46:54;;;;;;;4.20;2.27;;;12.10;99.90;;;;;;5196377;28;20537;-48
2022/05/16 00:49:28;;;;;;;3.90;2.60;;;12.10;99.90;;;;;;5187585;28;20534;-53
2022/05/16 00:52:03;;;;;;;5.27;3.20;;;12.00;99.90;;;;;;5197567;28;20549;-46
2022/05/16 00:54:38;;;;;;;6.47;2.83;;;12.00;99.90;;;;;;5197883;28;20840;-45
2022/05/16 00:57:13;;;;;;;6.53;2.13;;;12.00;99.90;;;;;;5200528;28;20461;-46
2022/05/16 00:59:52;;;;;;;5.07;2.40;;;11.90;99.90;;;;;;5181224;28;20973;-48
2022/05/16 01:05:14;;;;;;;8.03;2.50;;;11.90;99.90;;;;;;5196254;28;20437;-46
2022/05/16 01:07:46;;;;;;;8.33;3.03;;;11.90;99.90;;;;;;5203216;28;20506;-49
2022/05/16 01:10:21;;;;;;;3.03;2.30;;;11.90;99.90;;;;;;5200566;28;20230;-48
2022/05/16 01:12:53;;;;;;;4.90;2.70;;;11.90;99.90;;;;;;5199404;28;20425;-47
2022/05/16 01:15:46;;;;;;;7.37;2.60;;;11.90;99.90;;;;;;5186257;28;20441;-48
2022/05/16 01:18:20;;;;;;;3.30;2.30;;;11.90;99.90;;;;;;5187087;28;20466;-46
2022/05/16 01:21:30;;;;;;;16.70;3.70;;;11.80;99.90;;;;;;5191060;28;20865;-47
2022/05/16 01:24:10;;;;;;;4.33;2.70;;;11.80;99.90;;;;;;5185145;28;20981;-48
2022/05/16 01:26:41;;;;;;;5.07;2.30;;;11.90;99.90;;;;;;5194246;28;20439;-49
2022/05/16 01:29:12;;;;;;;3.70;2.67;;;11.80;99.90;;;;;;5207774;28;20452;-45
2022/05/16 01:31:43;;;;;;;3.33;2.30;;;11.90;99.90;;;;;;5201968;28;20445;-47
2022/05/16 01:34:14;;;;;;;4.13;2.23;;;11.80;99.90;;;;;;5189110;28;20180;-47
2022/05/16 01:36:45;;;;;;;11.10;3.37;;;11.80;99.90;;;;;;5192162;28;20495;-47
2022/05/16 01:39:15;;;;;;;5.13;2.33;;;11.80;99.90;;;;;;5193379;28;20447;-46
2022/05/16 01:41:46;;;;;;;3.40;1.93;;;11.80;99.90;;;;;;5191802;28;20258;-46
2022/05/16 01:44:16;;;;;;;7.33;3.00;;;11.80;99.90;;;;;;5178252;28;20276;-48
2022/05/16 01:46:47;;;;;;;10.63;2.63;;;11.80;99.90;;;;;;5200756;28;20183;-48
2022/05/16 01:49:18;;;;;;;4.57;2.43;;;11.80;99.90;;;;;;5188535;28;20209;-46
2022/05/16 01:51:48;;;;;;;3.23;2.40;;;11.80;99.90;;;;;;5183922;28;20638;-47
2022/05/16 01:54:19;;;;;;;4.53;2.17;;;11.80;99.90;;;;;;5193721;28;20215;-47
2022/05/16 01:56:49;;;;;;;10.07;2.80;;;11.80;99.90;;;;;;5186146;28;20295;-48
2022/05/16 01:59:20;;;;;;;11.43;3.17;;;11.70;99.90;;;;;;5195991;28;20218;-46
2022/05/16 02:01:50;;;;;;;3.80;2.43;;;11.70;99.90;;;;;;5174193;28;20203;-47
2022/05/16 02:04:21;;;;;;;5.37;2.77;;;11.70;99.90;;;;;;5191959;28;20547;-46
2022/05/16 02:06:51;;;;;;;6.40;2.50;;;11.70;99.90;;;;;;5196723;28;20199;-46
2022/05/16 02:09:22;;;;;;;6.13;2.93;;;11.70;99.90;;;;;;5195731;28;20204;-46
2022/05/16 02:11:52;;;;;;;7.20;2.27;;;11.70;99.90;;;;;;5221104;28;20194;-46
2022/05/16 02:14:23;;;;;;;3.80;2.20;;;11.70;99.90;;;;;;5199339;28;20273;-45
2022/05/16 02:16:54;;;;;;;6.83;2.60;;;11.60;99.90;;;;;;5200756;28;20212;-46
2022/05/16 02:19:24;;;;;;;5.10;2.93;;;11.60;99.90;;;;;;5199005;28;20214;-46
2022/05/16 02:24:44;;;;;;;7.13;3.03;;;11.60;99.90;;;;;;5190029;28;20188;-46
2022/05/16 02:27:19;;;;;;;15.90;2.60;;;11.60;99.90;;;;;;5200234;28;20813;-47
2022/05/16 02:29:49;;;;;;;3.97;2.47;;;11.60;99.90;;;;;;5184465;28;20227;-51
2022/05/16 02:32:20;;;;;;;6.03;2.90;;;11.50;99.90;;;;;;5197825;28;20432;-47
2022/05/16 02:34:50;;;;;;;8.37;2.67;;;11.50;99.90;;;;;;5200171;28;20558;-48
2022/05/16 02:37:21;;;;;;;3.47;2.70;;;11.50;99.90;;;;;;5195062;28;20214;-49
2022/05/16 02:39:52;;;;;;;14.50;2.77;;;11.50;99.90;;;;;;5193356;28;20266;-50
2022/05/16 02:42:22;;;;;;;5.10;2.70;;;11.50;99.90;;;;;;5201296;28;20663;-48
2022/05/16 02:44:53;;;;;;;3.30;2.50;;;11.50;99.90;;;;;;5180224;28;20323;-48
2022/05/16 02:47:24;;;;;;;11.10;2.73;;;11.40;99.90;;;;;;5196054;28;20191;-47
2022/05/16 02:49:55;;;;;;;2.47;2.27;;;11.40;99.90;;;;;;5190202;28;20210;-49
2022/05/16 02:52:25;;;;;;;7.90;3.07;;;11.40;99.90;;;;;;5186593;28;20810;-47
2022/05/16 02:54:56;;;;;;;7.23;2.40;;;11.40;99.90;;;;;;5195849;28;20199;-48
2022/05/16 02:57:28;;;;;;;4.77;2.70;;;11.40;99.90;;;;;;5187419;28;20295;-48
2022/05/16 02:59:59;;;;;;;9.07;2.67;;;11.40;99.90;;;;;;5201554;28;20209;-48
2022/05/16 03:02:30;;;;;;;12.77;3.10;;;11.40;99.90;;;;;;5187952;28;20407;-51
2022/05/16 03:05:00;;;;;;;17.63;2.63;;;11.40;99.90;;;;;;5195099;28;20536;-47
2022/05/16 03:07:31;;;;;;;3.10;2.53;;;11.30;99.90;;;;;;5189322;28;20747;-48
2022/05/16 03:10:03;;;;;;;10.13;2.40;;;11.40;99.90;;;;;;5187098;28;20290;-46
2022/05/16 03:12:34;;;;;;;5.57;2.40;;;11.40;99.90;;;;;;5201810;28;20187;-47
2022/05/16 03:15:05;;;;;;;2.20;1.83;;;11.40;99.90;;;;;;5198826;28;20436;-48
2022/05/16 03:17:35;;;;;;;7.90;2.03;;;11.40;99.90;;;;;;5204231;28;20476;-47
2022/05/16 03:20:08;;;;;;;7.10;2.20;;;11.40;99.90;;;;;;5187425;28;20456;-46
2022/05/16 03:22:41;;;;;;;7.10;2.90;;;11.40;99.90;;;;;;5187979;28;20181;-48
2022/05/16 03:25:11;;;;;;;7.50;3.40;;;11.40;99.90;;;;;;5190299;28;20946;-47
2022/05/16 03:27:42;;;;;;;5.30;1.93;;;11.40;99.90;;;;;;5196376;28;20440;-46
2022/05/16 03:30:13;;;;;;;4.30;2.57;;;11.50;99.90;;;;;;5224956;22;20222;-52
2022/05/16 03:32:44;;;;;;;4.53;2.33;;;11.50;99.90;;;;;;5215601;28;20187;-52
2022/05/16 03:35:14;;;;;;;5.80;2.30;;;11.50;99.90;;;;;;5214666;28;20793;-52
2022/05/16 03:37:45;;;;;;;5.43;2.50;;;11.50;99.90;;;;;;5225904;28;20202;-52
2022/05/16 03:43:05;;;;;;;5.30;3.00;;;11.60;99.90;;;;;;5218155;28;20213;-52
2022/05/16 03:45:37;;;;;;;7.20;2.37;;;11.60;99.90;;;;;;5222738;28;20429;-52
2022/05/16 03:48:08;;;;;;;7.23;2.77;;;11.60;99.90;;;;;;5217259;28;21846;-51
2022/05/16 03:50:40;;;;;;;8.53;2.47;;;11.60;99.90;;;;;;5225530;28;20436;-51
2022/05/16 03:53:11;;;;;;;5.47;2.47;;;11.60;99.90;;;;;;5218895;28;20530;-52
2022/05/16 03:55:41;;;;;;;6.40;2.27;;;11.70;99.90;;;;;;5232015;28;20509;-54
2022/05/16 03:58:12;;;;;;;5.60;2.60;;;11.70;99.90;;;;;;5224896;28;20206;-52
2022/05/16 04:00:42;;;;;;;5.30;2.40;;;11.80;99.90;;;;;;5219436;28;20264;-53
2022/05/16 04:03:14;;;;;;;5.03;2.67;;;11.80;99.90;;;;;;5222447;28;20274;-52
2022/05/16 04:05:44;;;;;;;3.80;2.57;;;11.90;99.90;;;;;;5214419;28;20266;-51
2022/05/16 04:08:14;;;;;;;7.10;2.30;;;11.90;99.90;;;;;;5224290;28;20545;-51
2022/05/16 04:10:45;;;;;;;9.20;2.70;;;12.00;99.90;;;;;;5206754;28;20211;-51
2022/05/16 04:13:15;;;;;;;5.43;2.90;;;12.10;99.90;;;;;;5219669;28;20236;-51
2022/05/16 04:15:46;;;;;;;8.83;2.50;;;12.10;99.90;;;;;;5218346;28;20239;-52
2022/05/16 04:18:16;;;;;;;2.77;2.27;;;12.20;99.90;;;;;;5221810;28;20215;-52
2022/05/16 04:20:47;;;;;;;3.43;2.70;;;12.20;99.90;;;;;;5223396;28;20194;-51
2022/05/16 04:23:18;;;;;;;11.30;2.60;;;12.30;99.90;;;;;;5218876;28;20214;-52
2022/05/16 04:25:49;;;;;;;9.40;2.37;;;12.40;99.90;;;;;;5218180;28;20183;-50
2022/05/16 04:28:19;;;;;;;8.63;3.20;;;12.50;99.90;;;;;;5219873;28;20491;-51
2022/05/16 04:30:50;;;;;;;4.63;2.50;;;12.50;99.90;;;;;;5218793;28;20266;-51
2022/05/16 04:33:21;;;;;;;3.47;2.50;;;12.60;99.90;;;;;;5222804;28;20191;-52
2022/05/16 04:35:51;;;;;;;4.73;2.70;;;12.70;99.90;;;;;;5220986;28;20553;-53
2022/05/16 04:38:22;;;;;;;3.50;2.70;;;12.70;99.90;;;;;;5215328;28;20213;-52
2022/05/16 04:43:41;;;;;;;10.93;2.33;;;13.00;99.90;;;;;;5224068;28;20237;-52
2022/05/16 04:46:12;;;;;;;4.83;2.00;;;13.10;99.90;;;;;;5217809;28;20773;-52
2022/05/16 04:48:43;;;;;;;8.47;2.53;;;13.20;99.90;;;;;;5219212;28;20183;-52
2022/05/16 04:51:14;;;;;;;5.17;2.20;;;13.60;98.70;;;;;;5215223;28;20198;-52
2022/05/16 04:53:44;;;;;;;7.10;3.60;;;14.10;97.30;;;;;;5223455;28;20428;-53
2022/05/16 04:56:15;;;;;;;8.83;2.83;;;15.20;93.20;;;;;;5222455;28;20201;-52
2022/05/16 04:58:45;;;;;;;3.33;2.20;;;16.70;79.10;;;;;;5214858;28;20210;-52
2022/05/16 05:01:16;;;;;;;7.60;2.63;;;17.80;68.10;;;;;;5222160;28;20200;-52
2022/05/16 05:03:47;;;;;;;2.57;2.30;;;18.50;59.50;;;;;;5202211;28;20187;-53
2022/05/16 05:06:17;;;;;;;5.23;2.63;;;19.00;56.20;;;;;;5221146;28;20422;-53
2022/05/16 05:08:48;;;;;;;6.90;2.40;;;19.50;53.70;;;;;;5208844;28;20250;-52
2022/05/16 05:17:02;;;;;;;7.10;2.73;;;20.00;49.60;;;;;;5218468;28;21010;-52
2022/05/16 05:19:35;;;;;;;3.23;2.30;;;20.60;48.50;;;;;;5220029;28;20461;-53
2022/05/16 05:22:06;;;;;;;2.20;2.10;;;21.50;46.40;;;;;;5228320;28;20525;-53
2022/05/16 05:24:37;;;;;;;5.73;2.60;;;22.30;44.00;;;;;;5214590;28;20438;-52
2022/05/16 05:27:07;;;;;;;11.10;2.70;;;23.00;42.20;;;;;;5202838;28;20461;-55
2022/05/16 05:29:38;;;;;;;11.03;2.90;;;23.00;41.10;;;;;;5214656;28;20329;-53
2022/05/16 05:32:09;;;;;;;3.87;2.17;;;22.90;41.20;;;;;;5212248;28;20599;-51
2022/05/16 05:34:40;;;;;;;3.93;2.80;;;22.90;41.20;;;;;;5225350;28;20206;-53
2022/05/16 05:37:11;;;;;;;2.30;2.10;;;23.60;40.10;;;;;;5222096;28;20513;-52
2022/05/16 05:39:42;;;;;;;5.60;2.60;;;23.80;39.00;;;;;;5222299;28;20465;-53
2022/05/16 05:42:12;;;;;;;8.40;2.87;;;23.70;39.10;;;;;;5213266;28;20186;-52
2022/05/16 05:44:43;;;;;;;13.43;2.23;;;24.00;38.50;;;;;;5217838;28;20737;-53
2022/05/16 05:47:14;;;;;;;3.90;2.60;;;23.90;37.90;;;;;;5220376;28;20191;-53
2022/05/16 05:49:45;;;;;;;5.43;2.47;;;23.90;38.50;;;;;;5214452;28;20202;-52
2022/05/16 05:52:15;;;;;;;5.63;2.20;;;24.40;38.10;;;;;;5218177;28;20183;-52
2022/05/16 05:54:47;;;;;;;4.37;2.07;;;25.30;36.90;;;;;;5218810;28;20195;-52
2022/05/16 05:57:18;;;;;;;6.70;2.47;;;25.50;35.50;;;;;;5222499;28;20253;-52
2022/05/16 05:59:48;;;;;;;4.67;2.50;;;25.50;35.60;;;;;;5222601;28;20441;-51
2022/05/16 06:02:20;;;;;;;4.67;2.20;;;25.80;35.20;;;;;;5222599;28;20597;-53
2022/05/16 06:04:51;;;;;;;13.37;2.90;;;26.10;34.70;;;;;;5219433;28;20214;-53
2022/05/16 06:07:21;;;;;;;4.47;2.50;;;26.50;33.80;;;;;;5211023;28;20448;-53
2022/05/16 06:09:52;;;;;;;5.13;2.70;;;26.20;34.20;;;;;;5209549;28;20269;-53
2022/05/16 06:12:23;;;;;;;3.13;1.77;;;25.30;34.90;;;;;;5212701;28;20905;-54
2022/05/16 06:14:53;;;;;;;8.23;2.30;;;25.20;35.90;;;;;;5222717;28;20601;-53
2022/05/16 06:17:24;;;;;;;19.37;2.17;;;25.40;35.10;;;;;;5223822;28;20501;-52
2022/05/16 06:19:57;;;;;;;2.90;2.40;;;25.90;34.80;;;;;;5221155;28;20206;-51
2022/05/16 06:22:34;;;;;;;5.80;2.50;;;26.40;33.80;;;;;;5222586;28;20941;-54
2022/05/16 06:28:06;;;;;;;2.93;2.27;;;26.00;33.70;;;;;;5218303;28;20532;-52
2022/05/16 06:30:42;;;;;;;5.03;2.10;;;25.90;34.40;;;;;;5221916;28;20583;-52
2022/05/16 06:33:14;;;;;;;3.73;2.00;;;26.00;34.00;;;;;;5206633;28;20465;-54
2022/05/16 06:35:45;;;;;;;3.70;2.00;;;27.00;33.30;;;;;;5219785;28;20878;-52
2022/05/16 06:38:43;;;;;;;7.10;2.20;;;27.40;32.10;;;;;;5218196;28;20981;-53
2022/05/16 06:41:14;;;;;;;8.47;2.67;;;27.20;32.50;;;;;;5213188;28;20577;-53
2022/05/16 06:43:44;;;;;;;4.30;1.90;;;27.60;32.30;;;;;;5215737;28;20451;-53
2022/05/16 06:46:15;;;;;;;2.20;2.00;;;28.00;30.50;;;;;;5218369;28;20241;-52
2022/05/16 06:48:45;;;;;;;7.83;2.40;;;27.70;31.50;;;;;;5217288;28;20797;-53
2022/05/16 06:51:16;;;;;;;5.07;2.17;;;28.30;30.80;;;;;;5218569;28;20214;-53
2022/05/16 06:53:46;;;;;;;13.87;2.33;;;29.00;29.80;;;;;;5217712;28;20214;-53
2022/05/16 06:56:18;;;;;;;4.07;1.90;;;29.60;28.80;;;;;;5220009;28;20269;-52
2022/05/16 06:58:48;;;;;;;2.43;1.87;;;29.20;28.40;;;;;;5221392;28;20547;-53
2022/05/16 07:01:19;;;;;;;2.37;1.30;;;29.00;29.20;;;;;;5229842;28;20580;-52
2022/05/16 07:03:49;;;;;;;9.70;2.30;;;29.70;29.00;;;;;;5216427;28;20288;-54
2022/05/16 07:06:20;;;;;;;2.23;1.83;;;30.70;28.00;;;;;;5226648;28;20183;-53
2022/05/16 07:08:51;;;;;;;2.40;1.63;;;31.40;27.20;;;;;;5219831;28;20252;-54
2022/05/16 07:11:21;;;;;;;4.63;2.50;;;32.10;26.60;;;;;;5241325;28;20252;-54
2022/05/16 07:13:52;;;;;;;7.60;1.50;;;32.50;26.10;;;;;;5218163;28;20241;-55
2022/05/16 07:16:23;;;;;;;3.50;2.40;;;32.80;25.90;;;;;;5221246;28;20190;-53
2022/05/16 07:18:54;;;;;;;2.90;2.37;;;33.20;25.30;;;;;;5217646;28;20661;-52
2022/05/16 07:21:25;;;;;;;9.80;2.23;;;32.70;25.60;;;;;;5216180;28;20617;-53
2022/05/16 07:23:56;;;;;;;2.40;2.27;;;32.40;25.70;;;;;;5216289;28;20446;-54
2022/05/16 07:29:16;;;;;;;5.43;2.20;;;34.00;25.00;;;;;;5223888;28;20186;-57
2022/05/16 07:31:46;;;;;;;2.47;2.27;;;34.10;24.40;;;;;;5223449;28;20448;-55
2022/05/16 07:34:17;;;;;;;3.50;2.13;;;35.00;24.10;;;;;;5222497;28;20214;-55
2022/05/16 07:36:48;;;;;;;5.47;2.23;;;34.90;23.80;;;;;;5227776;28;20220;-54
2022/05/16 07:39:19;;;;;;;4.47;2.10;;;33.90;24.20;;;;;;5223253;28;20191;-55
2022/05/16 07:41:52;;;;;;;4.53;2.03;;;33.70;24.10;;;;;;5223380;28;20186;-54
2022/05/16 07:44:22;;;;;;;8.90;1.90;;;32.40;25.30;;;;;;5225061;28;20207;-54
2022/05/16 07:46:53;;;;;;;8.43;1.93;;;32.30;25.70;;;;;;5225764;28;20441;-54
2022/05/16 07:49:24;;;;;;;2.30;1.80;;;31.90;25.70;;;;;;5224818;28;20194;-52
2022/05/16 07:51:54;;;;;;;2.93;1.80;;;31.20;26.20;;;;;;5226171;28;20249;-52
2022/05/16 07:54:25;;;;;;;5.97;1.93;;;30.40;27.10;;;;;;5228675;28;20179;-55
2022/05/16 07:56:55;;;;;;;2.50;1.87;;;30.20;27.60;;;;;;5215941;28;20663;-55
2022/05/16 07:59:26;;;;;;;2.30;2.10;;;30.80;27.00;;;;;;5230325;28;20230;-52
2022/05/16 08:01:57;;;;;;;8.23;2.40;;;31.40;26.40;;;;;;5209194;28;20198;-57
2022/05/16 08:04:27;;;;;;;4.23;1.53;;;31.90;26.20;;;;;;5214278;28;20175;-50
2022/05/16 08:06:58;;;;;;;5.23;1.70;;;32.20;26.60;;;;;;5216309;28;20195;-52
2022/05/16 08:12:26;;;;;;;10.30;2.60;;;30.30;27.40;;;;;;5217767;28;20651;-54
2022/05/16 08:14:57;;;;;;;2.33;2.13;;;30.70;27.20;;;;;;5222898;28;20441;-55
2022/05/16 08:17:29;;;;;;;3.83;2.43;;;30.40;27.70;;;;;;5212473;28;20461;-55
2022/05/16 08:20:00;;;;;;;4.33;2.30;;;30.70;27.00;;;;;;5222699;28;20463;-54
2022/05/16 08:22:33;;;;;;;13.30;2.10;;;30.70;27.20;;;;;;5220762;28;20445;-55
2022/05/16 08:25:05;;;;;;;4.20;2.27;;;31.70;27.00;;;;;;5210961;28;20437;-56
2022/05/16 08:27:35;;;;;;;8.23;2.17;;;32.40;26.20;;;;;;5223500;28;20510;-53
2022/05/16 08:30:07;;;;;;;12.40;2.60;;;32.80;25.40;;;;;;5212942;28;20481;-55
2022/05/16 08:32:38;;;;;;;3.90;2.13;;;32.30;25.50;;;;;;5210560;28;20187;-57
2022/05/16 08:35:10;;;;;;;2.80;1.87;;;32.10;26.10;;;;;;5207914;28;20799;-55
2022/05/16 08:40:47;;;;;;;3.23;2.50;;;30.90;27.00;;;;;;5209900;28;20511;-54
2022/05/16 08:43:49;;;;;;;3.43;2.10;;;31.10;27.30;;;;;;5217161;28;20460;-54
2022/05/16 08:46:34;;;;;;;2.37;2.03;;;30.90;27.10;;;;;;5218914;28;20488;-53
2022/05/16 08:49:31;;;;;;;3.77;2.27;;;29.60;27.70;;;;;;5216713;28;23463;-55
2022/05/16 08:52:18;;;;;;;4.83;1.90;;;28.70;29.00;;;;;;5228530;28;20512;-53
2022/05/16 08:54:56;;;;;;;8.17;2.03;;;27.50;30.30;;;;;;5220201;28;21007;-53
2022/05/16 08:57:34;;;;;;;8.63;2.20;;;26.20;31.30;;;;;;5216841;28;20528;-54
2022/05/16 09:00:21;;;;;;;2.00;1.90;;;25.10;34.10;;;;;;5215125;28;20461;-53
2022/05/16 09:02:54;;;;;;;3.33;1.73;;;24.30;35.60;;;;;;5215262;28;20464;-53
2022/05/16 09:05:35;;;;;;;6.10;1.70;;;23.50;36.70;;;;;;5219600;28;20440;-53
2022/05/16 09:08:10;;;;;;;6.07;2.17;;;22.90;37.60;;;;;;5225898;28;20492;-53
2022/05/16 09:11:07;;;;;;;2.47;2.03;;;22.60;38.30;;;;;;5205862;28;20464;-55
2022/05/16 09:13:57;;;;;;;2.57;2.17;;;22.50;39.00;;;;;;5220484;28;20472;-57
2022/05/16 09:16:38;;;;;;;1.50;1.40;;;22.50;39.00;;;;;;5216590;28;20433;-54
2022/05/16 09:19:30;;;;;;;3.07;2.07;;;22.50;39.20;;;;;;5218865;28;20445;-53
2022/05/16 09:22:28;;;;;;;4.67;2.03;;;22.60;37.90;;;;;;5218370;28;20441;-56
2022/05/16 09:25:26;;;;;;;4.10;2.13;;;22.70;37.90;;;;;;5219072;28;20434;-53
2022/05/16 09:30:50;;;;;;;3.83;1.80;;;22.50;38.90;;;;;;5235113;22;20505;-46
2022/05/16 09:33:26;;;;;;;2.07;1.80;;;22.40;39.00;;;;;;5217061;28;20448;-47
2022/05/16 09:36:20;;;;;;;4.67;1.80;;;22.40;38.40;;;;;;5218028;28;20433;-47
2022/05/16 09:38:51;;;;;;;6.73;1.83;;;22.30;38.70;;;;;;5217232;28;20495;-46
2022/05/16 09:41:24;;;;;;;4.17;1.60;;;22.20;39.30;;;;;;5222213;28;20769;-48
2022/05/16 09:44:22;;;;;;;3.43;1.80;;;22.20;39.20;;;;;;5230207;28;20955;-49
2022/05/16 09:47:26;;;;;;;2.07;1.70;;;22.20;38.00;;;;;;5237547;28;20430;-47
2022/05/16 09:50:02;;;;;;;3.47;2.07;;;22.00;38.10;;;;;;5237088;28;20522;-48
2022/05/16 09:52:48;;;;;;;9.83;1.80;;;21.90;38.70;;;;;;5240845;28;20432;-48
2022/05/16 09:55:35;;;;;;;1.83;1.73;;;22.00;39.00;;;;;;5236673;28;20441;-48
2022/05/16 09:58:22;;;;;;;1.83;1.70;;;22.20;39.00;;;;;;5240313;28;20472;-49
2022/05/16 10:00:54;;;;;;;4.07;2.07;;;22.30;38.90;;;;;;5234888;28;20456;-48
2022/05/16 10:03:43;;;;;;;2.60;1.83;;;22.60;39.10;;;;;;5235153;28;20771;-47
2022/05/16 10:06:32;;;;;;;8.70;2.07;;;22.80;38.80;;;;;;5233421;28;20431;-48
2022/05/16 10:09:06;;;;;;;2.70;1.30;;;22.70;38.10;;;;;;5248726;28;20424;-48
2022/05/16 10:11:38;;;;;;;3.00;1.87;;;22.70;38.00;;;;;;5234155;28;20529;-51
2022/05/16 10:14:10;;;;;;;3.20;1.70;;;22.70;37.40;;;;;;5250958;28;20497;-48
2022/05/16 10:16:47;;;;;;;1.30;1.30;;;22.80;37.60;;;;;;5239514;28;20432;-47
2022/05/16 10:19:22;;;;;;;4.00;2.13;;;23.10;37.40;;;;;;5244147;28;20420;-48
2022/05/16 10:22:01;;;;;;;4.03;1.97;;;23.30;36.20;;;;;;5241014;28;20951;-48
2022/05/16 10:24:37;;;;;;;17.97;1.40;;;23.30;36.30;;;;;;5237202;28;20474;-47
2022/05/16 10:27:11;;;;;;;3.93;2.03;;;23.20;36.40;;;;;;5243027;28;20433;-48
2022/05/16 10:29:48;;;;;;;5.17;1.93;;;23.10;35.40;;;;;;5244064;28;20856;-47
2022/05/16 10:35:26;;;;;;;1.80;1.57;;;22.90;35.70;;;;;;5244883;28;20517;-48
2022/05/16 10:38:00;;;;;;;1.43;1.33;;;23.00;36.30;;;;;;5239852;28;20464;-48
2022/05/16 10:40:40;;;;;;;3.03;1.50;;;23.10;36.60;;;;;;5242364;28;21087;-47
2022/05/16 10:43:20;;;;;;;2.93;1.50;;;23.00;36.10;;;;;;5243594;28;20435;-48
2022/05/16 10:45:57;;;;;;;3.27;1.00;;;22.90;36.10;;;;;;5240203;28;20432;-48
2022/05/16 10:48:46;;;;;;;3.33;1.93;;;22.70;36.20;;;;;;5246491;28;20439;-47
2022/05/16 10:51:35;;;;;;;2.43;1.63;;;22.60;36.90;;;;;;5240345;28;20459;-48
2022/05/16 10:54:10;;;;;;;2.80;1.50;;;22.60;37.00;;;;;;5238680;28;20463;-56
2022/05/16 10:57:18;;;;;;;1.30;1.30;;;22.60;37.40;;;;;;5238034;28;20442;-47
2022/05/16 11:00:08;;;;;;;4.50;2.03;;;22.50;37.50;;;;;;5203201;28;20959;-47
2022/05/16 11:02:50;;;;;;;6.27;2.17;;;22.60;37.10;;;;;;5239839;28;20505;-48
2022/05/16 11:06:05;;;;;;;5.67;1.73;;;22.60;36.70;;;;;;5242993;28;20519;-46
2022/05/16 11:08:52;;;;;;;2.50;1.80;;;22.60;36.80;;;;;;5237066;28;20502;-47
2022/05/16 11:11:38;;;;;;;5.50;1.53;;;22.80;36.60;;;;;;5255165;28;20857;-47
2022/05/16 11:14:17;;;;;;;3.60;2.17;;;23.10;37.00;;;;;;5243058;28;20439;-47
2022/05/16 11:16:50;;;;;;;3.60;1.80;;;23.10;36.50;;;;;;5242772;28;20456;-49
2022/05/16 11:19:39;;;;;;;2.93;1.43;;;23.10;36.00;;;;;;5238723;28;20444;-47
2022/05/16 11:22:22;;;;;;;3.70;1.60;;;23.10;36.10;;;;;;5239824;28;20501;-47
2022/05/16 11:25:06;;;;;;;5.03;1.40;;;23.20;35.60;;;;;;5238366;28;20536;-46
2022/05/16 11:28:00;;;;;;;2.03;1.90;;;23.20;35.70;;;;;;5244460;28;20470;-48
2022/05/16 11:30:48;;;;;;;2.40;1.50;;;23.20;36.00;;;;;;5245420;28;20492;-48
2022/05/16 11:33:47;;;;;;;27.17;1.77;;;23.20;36.30;;;;;;5241423;28;20440;-48
2022/05/16 11:36:37;;;;;;;5.03;1.90;;;23.30;35.50;;;;;;5244771;28;20544;-48
2022/05/16 11:39:22;;;;;;;3.80;1.87;;;23.30;35.80;;;;;;5243183;28;20448;-47
2022/05/16 11:42:23;;;;;;;8.17;1.70;;;23.20;36.00;;;;;;5239915;28;20460;-47
2022/05/16 11:45:03;;;;;;;6.63;1.47;;;23.30;35.80;;;;;;5239511;28;20783;-49
2022/05/16 11:47:57;;;;;;;1.70;1.40;;;23.40;35.50;;;;;;5256400;28;20451;-48
2022/05/16 11:50:57;;;;;;;1.80;1.70;;;23.20;35.60;;;;;;5241175;28;20471;-47
2022/05/16 11:53:57;;;;;;;1.40;1.30;;;23.10;36.00;;;;;;5172544;28;21001;-48
2022/05/16 12:02:17;;;;;;;6.53;1.73;;;23.60;35.00;;;;;;5244540;28;20801;-47
2022/05/16 12:04:51;;;;;;;3.40;1.10;;;23.60;34.80;;;;;;5243508;28;20433;-47
2022/05/16 12:07:41;;;;;;;1.17;1.10;;;23.80;34.70;;;;;;5241030;28;20805;-47
2022/05/16 12:10:14;;;;;;;1.80;1.60;;;24.00;34.80;;;;;;5239288;28;20892;-46
2022/05/16 12:12:48;;;;;;;4.40;1.47;;;24.20;35.10;;;;;;5240599;28;20455;-48
2022/05/16 12:15:24;;;;;;;1.57;1.47;;;24.30;34.20;;;;;;5237354;28;20479;-49
2022/05/16 12:18:05;;;;;;;2.20;1.87;;;24.30;34.50;;;;;;5246138;28;20514;-47
2022/05/16 12:20:44;;;;;;;2.20;1.77;;;24.30;34.30;;;;;;5243057;28;20490;-47
2022/05/16 12:23:44;;;;;;;5.10;1.53;;;24.50;33.60;;;;;;5237630;28;20508;-47
2022/05/16 12:26:26;;;;;;;1.87;1.77;;;24.80;33.90;;;;;;5228437;28;20421;-48
2022/05/16 12:29:10;;;;;;;7.40;2.97;;;24.70;33.90;;;;;;5237423;28;20429;-46
2022/05/16 12:31:53;;;;;;;1.60;1.50;;;24.50;34.30;;;;;;5237176;28;20830;-48
2022/05/16 12:34:42;;;;;;;1.77;1.77;;;24.50;34.20;;;;;;5257756;28;20827;-47
2022/05/16 12:37:15;;;;;;;10.33;2.30;;;24.30;34.40;;;;;;5240874;28;20464;-47
2022/05/16 12:40:04;;;;;;;1.93;1.83;;;24.30;34.60;;;;;;5228254;28;20519;-48
2022/05/16 12:43:02;;;;;;;3.57;2.60;;;24.30;34.50;;;;;;5241288;28;20452;-47
2022/05/16 12:45:51;;;;;;;2.60;2.40;;;24.30;34.30;;;;;;5229038;28;20441;-47
2022/05/16 12:49:20;;;;;;;5.50;2.97;;;24.20;33.60;;;;;;5250458;28;20425;-48
2022/05/16 12:51:56;;;;;;;6.23;3.17;;;24.00;33.90;;;;;;5199698;28;20874;-47
2022/05/16 12:54:45;;;;;;;3.80;2.63;;;23.90;34.10;;;;;;5199721;28;20441;-46
2022/05/16 12:57:19;;;;;;;12.67;2.83;;;23.90;34.40;;;;;;5229949;28;20893;-46
2022/05/16 12:59:58;;;;;;;4.40;2.60;;;23.90;34.30;;;;;;5237831;28;20539;-46
2022/05/16 13:02:47;;;;;;;4.53;2.47;;;24.00;34.30;;;;;;5239406;28;20515;-48
2022/05/16 13:05:26;;;;;;;3.87;2.90;;;24.00;34.00;;;;;;5231071;28;20533;-49
2022/05/16 13:08:26;;;;;;;4.70;2.63;;;24.00;34.60;;;;;;5237796;28;20436;-46
2022/05/16 13:11:24;;;;;;;10.23;3.30;;;24.10;34.50;;;;;;5235019;28;20460;-47
2022/05/16 13:14:07;;;;;;;12.90;2.97;;;24.10;34.00;;;;;;5241915;28;20469;-48
2022/05/16 13:16:48;;;;;;;3.60;2.77;;;24.00;34.60;;;;;;5238588;28;20490;-47
2022/05/16 13:19:23;;;;;;;2.80;2.10;;;24.00;34.60;;;;;;5255202;28;20438;-47
2022/05/16 13:22:06;;;;;;;8.83;2.27;;;23.90;34.30;;;;;;5238437;28;20452;-47
2022/05/16 13:24:37;;;;;;;4.03;1.60;;;23.90;34.40;;;;;;5232016;28;20429;-46
2022/05/16 13:30:07;;;;;;;2.77;2.50;;;24.00;34.70;;;;;;5239468;28;20221;-47
2022/05/16 13:32:39;;;;;;;5.03;2.77;;;24.10;34.40;;;;;;5241675;28;20960;-47
2022/05/16 13:35:29;;;;;;;2.47;2.27;;;24.10;34.10;;;;;;5239802;28;20448;-47
2022/05/16 13:38:00;;;;;;;4.80;2.83;;;24.20;33.80;;;;;;5239561;28;20915;-47
2022/05/16 13:40:40;;;;;;;5.10;2.70;;;24.30;34.00;;;;;;5245404;28;20471;-46
2022/05/16 13:43:12;;;;;;;2.90;2.70;;;24.40;33.80;;;;;;5242505;28;20182;-48
2022/05/16 13:45:43;;;;;;;4.53;2.43;;;24.50;33.80;;;;;;5238354;28;20532;-49
2022/05/16 13:48:16;;;;;;;3.53;2.97;;;24.60;33.50;;;;;;5236342;28;20441;-49
2022/05/16 13:50:47;;;;;;;9.03;2.37;;;24.50;33.20;;;;;;5242175;28;20464;-47
2022/05/16 13:53:22;;;;;;;5.40;2.40;;;24.50;33.70;;;;;;5228130;28;20441;-48
2022/05/16 13:55:56;;;;;;;1.97;1.77;;;24.60;33.80;;;;;;5248978;28;20440;-48
2022/05/16 13:58:30;;;;;;;7.10;2.80;;;24.70;34.20;;;;;;5233439;28;20471;-48
2022/05/16 14:01:20;;;;;;;3.80;2.50;;;24.70;33.40;;;;;;5235239;28;20820;-48
2022/05/16 14:03:59;;;;;;;2.63;2.43;;;24.60;33.00;;;;;;5242574;28;20429;-45
2022/05/16 14:06:36;;;;;;;2.30;2.10;;;24.50;32.30;;;;;;5237573;28;20428;-45
2022/05/16 14:09:34;;;;;;;2.57;2.37;;;24.30;32.50;;;;;;5239839;28;20887;-46
2022/05/16 14:12:09;;;;;;;4.47;2.43;;;24.30;32.20;;;;;;5243598;28;20449;-44
2022/05/16 14:14:41;;;;;;;2.30;2.03;;;24.30;32.40;;;;;;5241829;28;20438;-46